sensor_id;sensor_type;location;lat;lon;timestamp;P1;durP1;ratioP1;P2;durP2;ratioP2
15287;SDS011;7745;48.708;9.026;2022-12-18T00:00:04;39.80;;;21.03;;
15287;SDS011;7745;48.708;9.026;2022-12-18T00:02:52;44.17;;;20.67;;
15287;SDS011;7745;48.708;9.026;2022-12-18T00:09:03;44.40;;;20.30;;
15287;SDS011;7745;48.708;9.026;2022-12-18T00:12:03;42.87;;;19.43;;
15287;SDS011;7745;48.708;9.026;2022-12-18T00:35:21;63.90;;;27.43;;
15287;SDS011;7745;48.708;9.026;2022-12-18T00:41:58;54.03;;;23.63;;
15287;SDS011;7745;48.708;9.026;2022-12-18T00:45:13;44.03;;;20.20;;
15287;SDS011;7745;48.708;9.026;2022-12-18T00:58:39;36.53;;;18.73;;
15287;SDS011;7745;48.708;9.026;2022-12-18T01:01:22;36.57;;;18.17;;
15287;SDS011;7745;48.708;9.026;2022-12-18T01:04:50;34.90;;;17.40;;
15287;SDS011;7745;48.708;9.026;2022-12-18T01:11:21;33.53;;;17.47;;
15287;SDS011;7745;48.708;9.026;2022-12-18T01:14:34;36.17;;;16.97;;
15287;SDS011;7745;48.708;9.026;2022-12-18T01:18:07;30.90;;;16.23;;
15287;SDS011;7745;48.708;9.026;2022-12-18T01:21:31;35.17;;;16.90;;
15287;SDS011;7745;48.708;9.026;2022-12-18T01:27:41;34.10;;;16.60;;
15287;SDS011;7745;48.708;9.026;2022-12-18T01:37:22;34.93;;;17.13;;
15287;SDS011;7745;48.708;9.026;2022-12-18T01:40:13;31.40;;;16.87;;
15287;SDS011;7745;48.708;9.026;2022-12-18T01:53:13;37.13;;;16.57;;
15287;SDS011;7745;48.708;9.026;2022-12-18T01:56:19;33.43;;;16.77;;
15287;SDS011;7745;48.708;9.026;2022-12-18T02:06:00;41.23;;;18.17;;
15287;SDS011;7745;48.708;9.026;2022-12-18T02:16:38;35.67;;;17.87;;
15287;SDS011;7745;48.708;9.026;2022-12-18T02:44:01;45.10;;;17.20;;
15287;SDS011;7745;48.708;9.026;2022-12-18T02:53:56;39.60;;;19.50;;
15287;SDS011;7745;48.708;9.026;2022-12-18T03:01:09;35.17;;;18.20;;
15287;SDS011;7745;48.708;9.026;2022-12-18T03:04:36;39.60;;;20.43;;
15287;SDS011;7745;48.708;9.026;2022-12-18T03:28:15;37.17;;;19.90;;
15287;SDS011;7745;48.708;9.026;2022-12-18T03:38:34;35.40;;;19.87;;
15287;SDS011;7745;48.708;9.026;2022-12-18T03:47:32;37.33;;;21.17;;
15287;SDS011;7745;48.708;9.026;2022-12-18T03:54:33;37.70;;;19.90;;
15287;SDS011;7745;48.708;9.026;2022-12-18T04:39:04;37.17;;;18.93;;
15287;SDS011;7745;48.708;9.026;2022-12-18T04:49:14;39.13;;;19.80;;
15287;SDS011;7745;48.708;9.026;2022-12-18T04:52:55;40.87;;;19.83;;
15287;SDS011;7745;48.708;9.026;2022-12-18T05:02:26;39.80;;;20.43;;
15287;SDS011;7745;48.708;9.026;2022-12-18T05:15:57;39.77;;;18.73;;
15287;SDS011;7745;48.708;9.026;2022-12-18T05:22:48;35.40;;;17.87;;
15287;SDS011;7745;48.708;9.026;2022-12-18T05:26:14;37.90;;;18.27;;
15287;SDS011;7745;48.708;9.026;2022-12-18T05:40:00;39.00;;;18.73;;
15287;SDS011;7745;48.708;9.026;2022-12-18T06:06:49;32.67;;;16.47;;
15287;SDS011;7745;48.708;9.026;2022-12-18T06:09:52;35.53;;;16.47;;
15287;SDS011;7745;48.708;9.026;2022-12-18T06:16:51;29.30;;;16.83;;
15287;SDS011;7745;48.708;9.026;2022-12-18T07:09:05;34.87;;;16.13;;
15287;SDS011;7745;48.708;9.026;2022-12-18T07:11:40;38.93;;;17.30;;
15287;SDS011;7745;48.708;9.026;2022-12-18T07:14:10;39.63;;;18.57;;
15287;SDS011;7745;48.708;9.026;2022-12-18T07:16:37;35.20;;;16.77;;
15287;SDS011;7745;48.708;9.026;2022-12-18T07:19:04;33.83;;;16.30;;
15287;SDS011;7745;48.708;9.026;2022-12-18T07:21:32;32.17;;;15.80;;
15287;SDS011;7745;48.708;9.026;2022-12-18T07:23:59;32.40;;;15.53;;
15287;SDS011;7745;48.708;9.026;2022-12-18T07:26:26;36.90;;;16.83;;
15287;SDS011;7745;48.708;9.026;2022-12-18T07:28:55;37.00;;;17.83;;
15287;SDS011;7745;48.708;9.026;2022-12-18T07:31:24;35.10;;;17.33;;
15287;SDS011;7745;48.708;9.026;2022-12-18T07:33:52;34.13;;;16.77;;
15287;SDS011;7745;48.708;9.026;2022-12-18T07:36:19;37.80;;;18.10;;
15287;SDS011;7745;48.708;9.026;2022-12-18T07:38:49;37.33;;;17.87;;
15287;SDS011;7745;48.708;9.026;2022-12-18T07:41:17;34.20;;;17.60;;
15287;SDS011;7745;48.708;9.026;2022-12-18T07:43:44;37.63;;;18.27;;
15287;SDS011;7745;48.708;9.026;2022-12-18T07:46:15;37.27;;;17.27;;
15287;SDS011;7745;48.708;9.026;2022-12-18T07:48:42;37.90;;;17.73;;
15287;SDS011;7745;48.708;9.026;2022-12-18T07:51:10;41.20;;;19.77;;
15287;SDS011;7745;48.708;9.026;2022-12-18T07:53:39;36.00;;;19.20;;
15287;SDS011;7745;48.708;9.026;2022-12-18T07:56:08;40.43;;;19.33;;
15287;SDS011;7745;48.708;9.026;2022-12-18T07:58:37;39.83;;;18.23;;
15287;SDS011;7745;48.708;9.026;2022-12-18T08:01:04;38.40;;;19.20;;
15287;SDS011;7745;48.708;9.026;2022-12-18T08:03:31;43.87;;;18.90;;
15287;SDS011;7745;48.708;9.026;2022-12-18T08:05:59;39.27;;;18.67;;
15287;SDS011;7745;48.708;9.026;2022-12-18T08:08:26;39.30;;;19.17;;
15287;SDS011;7745;48.708;9.026;2022-12-18T08:10:53;39.07;;;19.00;;
15287;SDS011;7745;48.708;9.026;2022-12-18T08:13:22;42.37;;;20.70;;
15287;SDS011;7745;48.708;9.026;2022-12-18T08:15:55;42.90;;;20.50;;
15287;SDS011;7745;48.708;9.026;2022-12-18T08:18:23;40.97;;;20.30;;
15287;SDS011;7745;48.708;9.026;2022-12-18T08:20:51;34.30;;;19.03;;
15287;SDS011;7745;48.708;9.026;2022-12-18T08:26:41;35.40;;;18.50;;
15287;SDS011;7745;48.708;9.026;2022-12-18T08:29:18;40.23;;;19.10;;
15287;SDS011;7745;48.708;9.026;2022-12-18T08:32:00;40.93;;;20.10;;
15287;SDS011;7745;48.708;9.026;2022-12-18T08:34:43;43.53;;;22.77;;
15287;SDS011;7745;48.708;9.026;2022-12-18T08:37:46;45.30;;;19.97;;
15287;SDS011;7745;48.708;9.026;2022-12-18T08:40:39;42.50;;;20.33;;
15287;SDS011;7745;48.708;9.026;2022-12-18T08:43:33;39.77;;;20.57;;
15287;SDS011;7745;48.708;9.026;2022-12-18T08:46:43;45.03;;;22.00;;
15287;SDS011;7745;48.708;9.026;2022-12-18T08:49:27;40.00;;;20.23;;
15287;SDS011;7745;48.708;9.026;2022-12-18T08:51:54;41.63;;;20.77;;
15287;SDS011;7745;48.708;9.026;2022-12-18T08:54:22;46.30;;;21.30;;
15287;SDS011;7745;48.708;9.026;2022-12-18T08:56:49;41.63;;;20.47;;
15287;SDS011;7745;48.708;9.026;2022-12-18T08:59:16;41.93;;;22.67;;
15287;SDS011;7745;48.708;9.026;2022-12-18T09:01:44;47.30;;;23.47;;
15287;SDS011;7745;48.708;9.026;2022-12-18T09:04:12;44.13;;;21.07;;
15287;SDS011;7745;48.708;9.026;2022-12-18T09:06:40;48.77;;;24.77;;
15287;SDS011;7745;48.708;9.026;2022-12-18T09:09:07;50.20;;;26.57;;
15287;SDS011;7745;48.708;9.026;2022-12-18T09:11:36;47.93;;;24.07;;
15287;SDS011;7745;48.708;9.026;2022-12-18T09:14:02;79.23;;;29.53;;
15287;SDS011;7745;48.708;9.026;2022-12-18T09:16:29;74.97;;;31.23;;
15287;SDS011;7745;48.708;9.026;2022-12-18T09:19:02;53.70;;;25.33;;
15287;SDS011;7745;48.708;9.026;2022-12-18T09:21:34;62.03;;;26.73;;
15287;SDS011;7745;48.708;9.026;2022-12-18T09:24:04;58.67;;;26.37;;
15287;SDS011;7745;48.708;9.026;2022-12-18T09:26:31;78.53;;;32.00;;
15287;SDS011;7745;48.708;9.026;2022-12-18T09:28:58;66.13;;;28.67;;
15287;SDS011;7745;48.708;9.026;2022-12-18T09:31:25;51.63;;;24.90;;
15287;SDS011;7745;48.708;9.026;2022-12-18T09:33:52;38.90;;;22.33;;
15287;SDS011;7745;48.708;9.026;2022-12-18T09:36:25;44.40;;;22.20;;
15287;SDS011;7745;48.708;9.026;2022-12-18T09:38:55;48.13;;;22.80;;
15287;SDS011;7745;48.708;9.026;2022-12-18T09:41:33;43.83;;;22.30;;
15287;SDS011;7745;48.708;9.026;2022-12-18T09:44:12;49.77;;;24.10;;
15287;SDS011;7745;48.708;9.026;2022-12-18T09:46:46;40.07;;;20.60;;
15287;SDS011;7745;48.708;9.026;2022-12-18T09:49:23;42.30;;;23.60;;
15287;SDS011;7745;48.708;9.026;2022-12-18T09:58:41;41.37;;;20.27;;
15287;SDS011;7745;48.708;9.026;2022-12-18T10:01:57;41.40;;;21.10;;
15287;SDS011;7745;48.708;9.026;2022-12-18T10:04:45;38.77;;;19.80;;
15287;SDS011;7745;48.708;9.026;2022-12-18T10:07:33;38.80;;;19.93;;
15287;SDS011;7745;48.708;9.026;2022-12-18T10:10:11;41.07;;;21.37;;
15287;SDS011;7745;48.708;9.026;2022-12-18T10:23:09;41.03;;;20.73;;
15287;SDS011;7745;48.708;9.026;2022-12-18T10:25:49;40.90;;;21.60;;
15287;SDS011;7745;48.708;9.026;2022-12-18T10:28:58;41.40;;;20.27;;
15287;SDS011;7745;48.708;9.026;2022-12-18T10:31:29;43.73;;;21.77;;
15287;SDS011;7745;48.708;9.026;2022-12-18T10:33:58;38.97;;;21.17;;
15287;SDS011;7745;48.708;9.026;2022-12-18T10:36:35;40.70;;;21.50;;
15287;SDS011;7745;48.708;9.026;2022-12-18T10:39:25;41.37;;;21.40;;
15287;SDS011;7745;48.708;9.026;2022-12-18T10:42:09;40.27;;;21.07;;
15287;SDS011;7745;48.708;9.026;2022-12-18T10:58:03;41.50;;;20.27;;
15287;SDS011;7745;48.708;9.026;2022-12-18T11:01:07;37.37;;;19.43;;
15287;SDS011;7745;48.708;9.026;2022-12-18T11:03:45;38.57;;;19.83;;
15287;SDS011;7745;48.708;9.026;2022-12-18T11:06:23;41.20;;;21.50;;
15287;SDS011;7745;48.708;9.026;2022-12-18T11:09:59;43.40;;;21.47;;
15287;SDS011;7745;48.708;9.026;2022-12-18T11:12:47;35.60;;;18.93;;
15287;SDS011;7745;48.708;9.026;2022-12-18T11:15:39;41.17;;;21.13;;
15287;SDS011;7745;48.708;9.026;2022-12-18T11:18:17;36.93;;;19.43;;
15287;SDS011;7745;48.708;9.026;2022-12-18T11:20:53;38.83;;;20.33;;
15287;SDS011;7745;48.708;9.026;2022-12-18T11:23:22;41.77;;;21.37;;
15287;SDS011;7745;48.708;9.026;2022-12-18T11:25:59;39.10;;;20.03;;
15287;SDS011;7745;48.708;9.026;2022-12-18T11:28:40;38.70;;;20.40;;
15287;SDS011;7745;48.708;9.026;2022-12-18T11:31:12;39.97;;;20.03;;
15287;SDS011;7745;48.708;9.026;2022-12-18T11:33:57;36.43;;;19.33;;
15287;SDS011;7745;48.708;9.026;2022-12-18T11:36:40;39.23;;;19.57;;
15287;SDS011;7745;48.708;9.026;2022-12-18T11:39:12;38.77;;;19.93;;
15287;SDS011;7745;48.708;9.026;2022-12-18T11:41:47;47.83;;;23.30;;
15287;SDS011;7745;48.708;9.026;2022-12-18T11:44:39;44.67;;;21.37;;
15287;SDS011;7745;48.708;9.026;2022-12-18T11:47:13;36.97;;;19.83;;
15287;SDS011;7745;48.708;9.026;2022-12-18T11:50:02;37.67;;;19.73;;
15287;SDS011;7745;48.708;9.026;2022-12-18T11:52:42;43.00;;;21.40;;
15287;SDS011;7745;48.708;9.026;2022-12-18T11:55:11;46.47;;;23.53;;
15287;SDS011;7745;48.708;9.026;2022-12-18T11:57:42;42.77;;;22.23;;
15287;SDS011;7745;48.708;9.026;2022-12-18T12:00:19;38.90;;;22.60;;
15287;SDS011;7745;48.708;9.026;2022-12-18T12:02:59;42.50;;;23.13;;
15287;SDS011;7745;48.708;9.026;2022-12-18T12:05:54;42.23;;;21.63;;
15287;SDS011;7745;48.708;9.026;2022-12-18T12:08:52;42.10;;;21.77;;
15287;SDS011;7745;48.708;9.026;2022-12-18T12:11:29;42.17;;;21.00;;
15287;SDS011;7745;48.708;9.026;2022-12-18T12:17:14;40.40;;;21.43;;
15287;SDS011;7745;48.708;9.026;2022-12-18T12:19:50;37.03;;;19.97;;
15287;SDS011;7745;48.708;9.026;2022-12-18T12:22:33;40.57;;;20.23;;
15287;SDS011;7745;48.708;9.026;2022-12-18T12:25:36;39.80;;;20.27;;
15287;SDS011;7745;48.708;9.026;2022-12-18T12:42:39;43.23;;;20.67;;
15287;SDS011;7745;48.708;9.026;2022-12-18T12:45:34;39.33;;;20.50;;
15287;SDS011;7745;48.708;9.026;2022-12-18T12:51:52;41.07;;;20.90;;
15287;SDS011;7745;48.708;9.026;2022-12-18T12:54:23;48.53;;;23.97;;
15287;SDS011;7745;48.708;9.026;2022-12-18T12:57:01;45.73;;;21.70;;
15287;SDS011;7745;48.708;9.026;2022-12-18T12:59:47;52.73;;;24.30;;
15287;SDS011;7745;48.708;9.026;2022-12-18T13:02:26;42.10;;;21.47;;
15287;SDS011;7745;48.708;9.026;2022-12-18T13:05:11;48.60;;;22.33;;
15287;SDS011;7745;48.708;9.026;2022-12-18T13:07:49;44.37;;;22.67;;
15287;SDS011;7745;48.708;9.026;2022-12-18T13:10:31;43.60;;;22.90;;
15287;SDS011;7745;48.708;9.026;2022-12-18T13:13:00;40.80;;;20.87;;
15287;SDS011;7745;48.708;9.026;2022-12-18T13:15:32;40.37;;;21.23;;
15287;SDS011;7745;48.708;9.026;2022-12-18T13:18:04;44.97;;;23.17;;
15287;SDS011;7745;48.708;9.026;2022-12-18T13:20:38;43.37;;;23.03;;
15287;SDS011;7745;48.708;9.026;2022-12-18T13:23:19;37.27;;;21.53;;
15287;SDS011;7745;48.708;9.026;2022-12-18T13:26:00;38.57;;;20.67;;
15287;SDS011;7745;48.708;9.026;2022-12-18T13:28:58;39.20;;;21.47;;
15287;SDS011;7745;48.708;9.026;2022-12-18T13:34:45;42.93;;;21.33;;
15287;SDS011;7745;48.708;9.026;2022-12-18T13:37:45;41.70;;;22.40;;
15287;SDS011;7745;48.708;9.026;2022-12-18T13:43:26;42.20;;;21.17;;
15287;SDS011;7745;48.708;9.026;2022-12-18T13:49:20;41.83;;;21.97;;
15287;SDS011;7745;48.708;9.026;2022-12-18T13:51:50;43.53;;;22.03;;
15287;SDS011;7745;48.708;9.026;2022-12-18T13:54:18;40.83;;;21.60;;
15287;SDS011;7745;48.708;9.026;2022-12-18T13:56:59;44.00;;;22.90;;
15287;SDS011;7745;48.708;9.026;2022-12-18T13:59:33;43.67;;;23.13;;
15287;SDS011;7745;48.708;9.026;2022-12-18T14:02:07;44.27;;;22.70;;
15287;SDS011;7745;48.708;9.026;2022-12-18T14:04:44;42.60;;;22.73;;
15287;SDS011;7745;48.708;9.026;2022-12-18T14:07:18;42.67;;;21.97;;
15287;SDS011;7745;48.708;9.026;2022-12-18T14:09:48;44.43;;;21.40;;
15287;SDS011;7745;48.708;9.026;2022-12-18T14:12:19;40.77;;;21.37;;
15287;SDS011;7745;48.708;9.026;2022-12-18T14:15:06;41.53;;;21.50;;
15287;SDS011;7745;48.708;9.026;2022-12-18T14:17:48;44.27;;;22.67;;
15287;SDS011;7745;48.708;9.026;2022-12-18T14:20:24;37.50;;;20.63;;
15287;SDS011;7745;48.708;9.026;2022-12-18T14:22:57;44.70;;;22.40;;
15287;SDS011;7745;48.708;9.026;2022-12-18T14:25:26;43.47;;;22.37;;
15287;SDS011;7745;48.708;9.026;2022-12-18T14:28:02;43.37;;;22.03;;
15287;SDS011;7745;48.708;9.026;2022-12-18T14:30:39;47.87;;;24.43;;
15287;SDS011;7745;48.708;9.026;2022-12-18T14:33:11;52.30;;;27.47;;
15287;SDS011;7745;48.708;9.026;2022-12-18T14:35:52;55.63;;;28.40;;
15287;SDS011;7745;48.708;9.026;2022-12-18T14:38:24;47.73;;;24.43;;
15287;SDS011;7745;48.708;9.026;2022-12-18T14:40:57;46.97;;;24.13;;
15287;SDS011;7745;48.708;9.026;2022-12-18T14:43:29;49.20;;;24.93;;
15287;SDS011;7745;48.708;9.026;2022-12-18T14:46:02;51.47;;;26.50;;
15287;SDS011;7745;48.708;9.026;2022-12-18T14:48:33;48.23;;;25.37;;
15287;SDS011;7745;48.708;9.026;2022-12-18T14:51:12;47.07;;;25.37;;
15287;SDS011;7745;48.708;9.026;2022-12-18T14:53:46;51.67;;;26.47;;
15287;SDS011;7745;48.708;9.026;2022-12-18T14:56:19;51.97;;;24.93;;
15287;SDS011;7745;48.708;9.026;2022-12-18T14:58:54;49.97;;;24.90;;
15287;SDS011;7745;48.708;9.026;2022-12-18T15:01:28;48.77;;;24.93;;
15287;SDS011;7745;48.708;9.026;2022-12-18T15:03:57;48.57;;;24.97;;
15287;SDS011;7745;48.708;9.026;2022-12-18T15:06:33;48.40;;;24.57;;
15287;SDS011;7745;48.708;9.026;2022-12-18T15:09:21;49.73;;;25.03;;
15287;SDS011;7745;48.708;9.026;2022-12-18T15:11:49;50.80;;;25.83;;
15287;SDS011;7745;48.708;9.026;2022-12-18T15:14:23;48.57;;;25.53;;
15287;SDS011;7745;48.708;9.026;2022-12-18T15:17:03;53.80;;;25.77;;
15287;SDS011;7745;48.708;9.026;2022-12-18T15:19:37;52.13;;;26.03;;
15287;SDS011;7745;48.708;9.026;2022-12-18T15:24:56;49.77;;;26.90;;
15287;SDS011;7745;48.708;9.026;2022-12-18T15:27:26;52.00;;;25.37;;
15287;SDS011;7745;48.708;9.026;2022-12-18T15:32:46;53.43;;;27.10;;
15287;SDS011;7745;48.708;9.026;2022-12-18T15:35:15;53.50;;;27.60;;
15287;SDS011;7745;48.708;9.026;2022-12-18T15:37:46;53.90;;;26.87;;
15287;SDS011;7745;48.708;9.026;2022-12-18T15:40:13;59.70;;;28.17;;
15287;SDS011;7745;48.708;9.026;2022-12-18T15:42:41;53.33;;;26.80;;
15287;SDS011;7745;48.708;9.026;2022-12-18T15:45:26;53.30;;;25.70;;
15287;SDS011;7745;48.708;9.026;2022-12-18T15:47:53;53.37;;;26.70;;
15287;SDS011;7745;48.708;9.026;2022-12-18T15:50:25;57.00;;;27.90;;
15287;SDS011;7745;48.708;9.026;2022-12-18T15:52:54;50.97;;;25.80;;
15287;SDS011;7745;48.708;9.026;2022-12-18T15:55:22;52.50;;;26.10;;
15287;SDS011;7745;48.708;9.026;2022-12-18T15:58:08;49.77;;;25.30;;
15287;SDS011;7745;48.708;9.026;2022-12-18T16:00:36;55.07;;;25.97;;
15287;SDS011;7745;48.708;9.026;2022-12-18T16:03:05;52.10;;;26.17;;
15287;SDS011;7745;48.708;9.026;2022-12-18T16:05:32;52.47;;;24.63;;
15287;SDS011;7745;48.708;9.026;2022-12-18T16:08:01;52.47;;;26.50;;
15287;SDS011;7745;48.708;9.026;2022-12-18T16:10:27;51.20;;;25.13;;
15287;SDS011;7745;48.708;9.026;2022-12-18T16:12:58;55.10;;;26.97;;
15287;SDS011;7745;48.708;9.026;2022-12-18T16:15:25;47.97;;;25.13;;
15287;SDS011;7745;48.708;9.026;2022-12-18T16:17:52;50.00;;;25.23;;
15287;SDS011;7745;48.708;9.026;2022-12-18T16:20:20;54.87;;;25.97;;
15287;SDS011;7745;48.708;9.026;2022-12-18T16:22:48;56.10;;;27.30;;
15287;SDS011;7745;48.708;9.026;2022-12-18T16:25:18;56.60;;;26.73;;
15287;SDS011;7745;48.708;9.026;2022-12-18T16:27:46;54.93;;;26.77;;
15287;SDS011;7745;48.708;9.026;2022-12-18T16:30:14;54.10;;;25.40;;
15287;SDS011;7745;48.708;9.026;2022-12-18T16:32:43;51.23;;;25.90;;
15287;SDS011;7745;48.708;9.026;2022-12-18T16:35:10;53.77;;;26.10;;
15287;SDS011;7745;48.708;9.026;2022-12-18T16:37:38;51.90;;;25.70;;
15287;SDS011;7745;48.708;9.026;2022-12-18T16:40:06;53.30;;;25.90;;
15287;SDS011;7745;48.708;9.026;2022-12-18T16:42:36;52.47;;;26.60;;
15287;SDS011;7745;48.708;9.026;2022-12-18T16:45:05;52.47;;;26.20;;
15287;SDS011;7745;48.708;9.026;2022-12-18T16:47:33;55.13;;;26.63;;
15287;SDS011;7745;48.708;9.026;2022-12-18T16:50:00;56.57;;;27.67;;
15287;SDS011;7745;48.708;9.026;2022-12-18T16:52:27;54.50;;;26.93;;
15287;SDS011;7745;48.708;9.026;2022-12-18T16:54:54;52.60;;;26.23;;
15287;SDS011;7745;48.708;9.026;2022-12-18T16:57:21;55.37;;;26.80;;
15287;SDS011;7745;48.708;9.026;2022-12-18T16:59:49;56.20;;;27.43;;
15287;SDS011;7745;48.708;9.026;2022-12-18T17:02:17;56.40;;;27.93;;
15287;SDS011;7745;48.708;9.026;2022-12-18T17:04:46;56.07;;;27.63;;
15287;SDS011;7745;48.708;9.026;2022-12-18T17:07:13;54.57;;;28.90;;
15287;SDS011;7745;48.708;9.026;2022-12-18T17:09:41;52.70;;;27.87;;
15287;SDS011;7745;48.708;9.026;2022-12-18T17:12:08;55.17;;;28.23;;
15287;SDS011;7745;48.708;9.026;2022-12-18T17:14:39;51.97;;;26.43;;
15287;SDS011;7745;48.708;9.026;2022-12-18T17:17:07;54.83;;;26.90;;
15287;SDS011;7745;48.708;9.026;2022-12-18T17:19:34;50.87;;;25.20;;
15287;SDS011;7745;48.708;9.026;2022-12-18T17:22:01;48.60;;;25.43;;
15287;SDS011;7745;48.708;9.026;2022-12-18T17:24:28;51.17;;;25.60;;
15287;SDS011;7745;48.708;9.026;2022-12-18T17:26:55;54.63;;;25.90;;
15287;SDS011;7745;48.708;9.026;2022-12-18T17:29:22;50.90;;;26.93;;
15287;SDS011;7745;48.708;9.026;2022-12-18T17:31:49;56.00;;;28.53;;
15287;SDS011;7745;48.708;9.026;2022-12-18T17:34:17;59.67;;;30.00;;
15287;SDS011;7745;48.708;9.026;2022-12-18T17:36:45;56.80;;;28.60;;
15287;SDS011;7745;48.708;9.026;2022-12-18T17:39:15;55.53;;;28.63;;
15287;SDS011;7745;48.708;9.026;2022-12-18T17:41:44;57.80;;;27.70;;
15287;SDS011;7745;48.708;9.026;2022-12-18T17:44:11;54.70;;;25.93;;
15287;SDS011;7745;48.708;9.026;2022-12-18T17:46:39;51.53;;;26.40;;
15287;SDS011;7745;48.708;9.026;2022-12-18T17:49:06;51.50;;;26.20;;
15287;SDS011;7745;48.708;9.026;2022-12-18T17:51:34;55.47;;;26.83;;
15287;SDS011;7745;48.708;9.026;2022-12-18T17:54:01;49.83;;;25.73;;
15287;SDS011;7745;48.708;9.026;2022-12-18T17:56:29;49.17;;;25.03;;
15287;SDS011;7745;48.708;9.026;2022-12-18T17:58:56;48.80;;;25.03;;
15287;SDS011;7745;48.708;9.026;2022-12-18T18:01:24;49.07;;;25.53;;
15287;SDS011;7745;48.708;9.026;2022-12-18T18:03:51;52.53;;;25.83;;
15287;SDS011;7745;48.708;9.026;2022-12-18T18:06:19;48.10;;;25.50;;
15287;SDS011;7745;48.708;9.026;2022-12-18T18:08:48;47.97;;;25.07;;
15287;SDS011;7745;48.708;9.026;2022-12-18T18:11:16;54.77;;;27.03;;
15287;SDS011;7745;48.708;9.026;2022-12-18T18:14:04;49.47;;;25.40;;
15287;SDS011;7745;48.708;9.026;2022-12-18T18:16:33;48.77;;;25.03;;
15287;SDS011;7745;48.708;9.026;2022-12-18T18:19:03;49.73;;;25.20;;
15287;SDS011;7745;48.708;9.026;2022-12-18T18:21:31;52.83;;;25.70;;
15287;SDS011;7745;48.708;9.026;2022-12-18T18:24:01;50.67;;;26.10;;
15287;SDS011;7745;48.708;9.026;2022-12-18T18:26:29;48.27;;;25.20;;
15287;SDS011;7745;48.708;9.026;2022-12-18T18:28:57;57.73;;;26.33;;
15287;SDS011;7745;48.708;9.026;2022-12-18T18:31:25;52.93;;;26.80;;
15287;SDS011;7745;48.708;9.026;2022-12-18T18:33:53;54.93;;;27.03;;
15287;SDS011;7745;48.708;9.026;2022-12-18T18:36:20;53.27;;;27.37;;
15287;SDS011;7745;48.708;9.026;2022-12-18T18:38:47;58.73;;;29.57;;
15287;SDS011;7745;48.708;9.026;2022-12-18T18:41:16;51.40;;;27.60;;
15287;SDS011;7745;48.708;9.026;2022-12-18T18:43:44;59.23;;;28.67;;
15287;SDS011;7745;48.708;9.026;2022-12-18T18:46:11;49.83;;;26.60;;
15287;SDS011;7745;48.708;9.026;2022-12-18T18:48:42;57.73;;;28.87;;
15287;SDS011;7745;48.708;9.026;2022-12-18T18:51:33;62.37;;;28.53;;
15287;SDS011;7745;48.708;9.026;2022-12-18T18:54:03;61.40;;;29.17;;
15287;SDS011;7745;48.708;9.026;2022-12-18T18:56:35;52.13;;;28.07;;
15287;SDS011;7745;48.708;9.026;2022-12-18T18:59:05;59.33;;;29.20;;
15287;SDS011;7745;48.708;9.026;2022-12-18T19:01:32;58.23;;;30.63;;
15287;SDS011;7745;48.708;9.026;2022-12-18T19:03:59;56.13;;;29.40;;
15287;SDS011;7745;48.708;9.026;2022-12-18T19:06:26;65.57;;;31.67;;
15287;SDS011;7745;48.708;9.026;2022-12-18T19:08:54;61.23;;;31.13;;
15287;SDS011;7745;48.708;9.026;2022-12-18T19:11:22;60.70;;;31.03;;
15287;SDS011;7745;48.708;9.026;2022-12-18T19:14:09;55.67;;;30.27;;
15287;SDS011;7745;48.708;9.026;2022-12-18T19:16:39;57.00;;;28.87;;
15287;SDS011;7745;48.708;9.026;2022-12-18T19:19:09;58.17;;;29.20;;
15287;SDS011;7745;48.708;9.026;2022-12-18T19:21:37;64.57;;;31.47;;
15287;SDS011;7745;48.708;9.026;2022-12-18T19:24:04;62.97;;;29.80;;
15287;SDS011;7745;48.708;9.026;2022-12-18T19:26:31;59.10;;;30.60;;
15287;SDS011;7745;48.708;9.026;2022-12-18T19:29:01;65.00;;;31.10;;
15287;SDS011;7745;48.708;9.026;2022-12-18T19:31:31;66.00;;;33.13;;
15287;SDS011;7745;48.708;9.026;2022-12-18T19:33:59;60.03;;;30.73;;
15287;SDS011;7745;48.708;9.026;2022-12-18T19:36:30;61.07;;;30.27;;
15287;SDS011;7745;48.708;9.026;2022-12-18T19:38:59;56.50;;;30.30;;
15287;SDS011;7745;48.708;9.026;2022-12-18T19:41:27;63.17;;;31.37;;
15287;SDS011;7745;48.708;9.026;2022-12-18T19:43:55;63.93;;;31.23;;
15287;SDS011;7745;48.708;9.026;2022-12-18T19:46:34;62.30;;;30.13;;
15287;SDS011;7745;48.708;9.026;2022-12-18T19:49:01;60.10;;;30.63;;
15287;SDS011;7745;48.708;9.026;2022-12-18T19:51:30;62.67;;;31.97;;
15287;SDS011;7745;48.708;9.026;2022-12-18T19:53:58;61.13;;;30.87;;
15287;SDS011;7745;48.708;9.026;2022-12-18T19:56:27;69.80;;;32.63;;
15287;SDS011;7745;48.708;9.026;2022-12-18T19:58:55;63.37;;;32.20;;
15287;SDS011;7745;48.708;9.026;2022-12-18T20:01:23;64.97;;;33.20;;
15287;SDS011;7745;48.708;9.026;2022-12-18T20:03:53;62.43;;;30.40;;
15287;SDS011;7745;48.708;9.026;2022-12-18T20:06:23;63.77;;;32.90;;
15287;SDS011;7745;48.708;9.026;2022-12-18T20:08:51;62.43;;;31.03;;
15287;SDS011;7745;48.708;9.026;2022-12-18T20:11:19;63.83;;;32.33;;
15287;SDS011;7745;48.708;9.026;2022-12-18T20:13:46;61.17;;;30.07;;
15287;SDS011;7745;48.708;9.026;2022-12-18T20:16:13;57.40;;;30.60;;
15287;SDS011;7745;48.708;9.026;2022-12-18T20:18:41;62.30;;;31.77;;
15287;SDS011;7745;48.708;9.026;2022-12-18T20:21:10;66.57;;;32.33;;
15287;SDS011;7745;48.708;9.026;2022-12-18T20:23:39;63.23;;;30.60;;
15287;SDS011;7745;48.708;9.026;2022-12-18T20:26:06;66.80;;;31.90;;
15287;SDS011;7745;48.708;9.026;2022-12-18T20:28:33;58.77;;;31.37;;
15287;SDS011;7745;48.708;9.026;2022-12-18T20:31:04;59.40;;;31.23;;
15287;SDS011;7745;48.708;9.026;2022-12-18T20:33:32;58.80;;;30.97;;
15287;SDS011;7745;48.708;9.026;2022-12-18T20:36:00;60.57;;;29.40;;
15287;SDS011;7745;48.708;9.026;2022-12-18T20:38:31;61.63;;;30.03;;
15287;SDS011;7745;48.708;9.026;2022-12-18T20:40:58;61.00;;;31.17;;
15287;SDS011;7745;48.708;9.026;2022-12-18T20:43:26;64.70;;;32.00;;
15287;SDS011;7745;48.708;9.026;2022-12-18T20:45:58;61.80;;;30.87;;
15287;SDS011;7745;48.708;9.026;2022-12-18T20:48:26;59.90;;;30.47;;
15287;SDS011;7745;48.708;9.026;2022-12-18T20:50:56;64.43;;;32.00;;
15287;SDS011;7745;48.708;9.026;2022-12-18T20:53:24;58.73;;;30.67;;
15287;SDS011;7745;48.708;9.026;2022-12-18T20:55:55;57.63;;;31.40;;
15287;SDS011;7745;48.708;9.026;2022-12-18T20:58:22;66.43;;;31.87;;
15287;SDS011;7745;48.708;9.026;2022-12-18T21:00:49;62.47;;;30.50;;
15287;SDS011;7745;48.708;9.026;2022-12-18T21:03:16;63.20;;;31.03;;
15287;SDS011;7745;48.708;9.026;2022-12-18T21:05:45;62.87;;;30.57;;
15287;SDS011;7745;48.708;9.026;2022-12-18T21:08:17;61.87;;;31.90;;
15287;SDS011;7745;48.708;9.026;2022-12-18T21:10:44;58.73;;;31.17;;
15287;SDS011;7745;48.708;9.026;2022-12-18T21:13:12;64.00;;;32.37;;
15287;SDS011;7745;48.708;9.026;2022-12-18T21:15:38;60.40;;;31.77;;
15287;SDS011;7745;48.708;9.026;2022-12-18T21:18:08;61.90;;;31.27;;
15287;SDS011;7745;48.708;9.026;2022-12-18T21:20:35;59.67;;;31.17;;
15287;SDS011;7745;48.708;9.026;2022-12-18T21:23:04;63.37;;;31.83;;
15287;SDS011;7745;48.708;9.026;2022-12-18T21:25:32;66.83;;;33.40;;
15287;SDS011;7745;48.708;9.026;2022-12-18T21:28:02;61.07;;;31.77;;
15287;SDS011;7745;48.708;9.026;2022-12-18T21:30:30;65.37;;;32.07;;
15287;SDS011;7745;48.708;9.026;2022-12-18T21:32:57;65.17;;;32.37;;
15287;SDS011;7745;48.708;9.026;2022-12-18T21:35:24;62.63;;;31.53;;
15287;SDS011;7745;48.708;9.026;2022-12-18T21:37:51;62.57;;;32.57;;
15287;SDS011;7745;48.708;9.026;2022-12-18T21:40:18;65.83;;;35.97;;
15287;SDS011;7745;48.708;9.026;2022-12-18T21:42:45;66.67;;;34.93;;